Time;durP1;ratioP1;P1;durP2;ratioP2;P2;SDS_P1;SDS_P2;PMS_P1;PMS_P2;Temp;Humidity;BMP_temperature;BMP_pressure;BME280_temperature;BME280_humidity;BME280_pressure;Samples;Min_cycle;Max_cycle;Signal;HPM_P1;HPM_P2
2023/10/25 00:02:24;;;;;;;19.50;7.55;;;9.70;99.90;;;;;;5092859;28;20047;-72
2023/10/25 00:04:54;;;;;;;16.95;8.10;;;9.70;99.90;;;;;;5094515;28;20040;-72
2023/10/25 00:07:20;;;;;;;15.77;6.93;;;9.70;99.90;;;;;;5094617;28;20044;-73
2023/10/25 00:09:46;;;;;;;13.73;7.65;;;9.70;99.90;;;;;;5078977;28;20060;-72
2023/10/25 00:12:12;;;;;;;12.93;6.25;;;9.70;99.90;;;;;;5094050;28;20067;-72
2023/10/25 00:14:38;;;;;;;14.38;6.45;;;9.70;99.90;;;;;;5081657;28;20484;-73
2023/10/25 00:17:04;;;;;;;14.25;5.72;;;9.70;99.90;;;;;;5092103;28;20235;-72
2023/10/25 00:19:29;;;;;;;9.05;5.93;;;9.70;99.90;;;;;;5080038;28;20044;-72
2023/10/25 00:21:55;;;;;;;11.93;6.00;;;9.70;99.90;;;;;;5092647;28;20113;-72
2023/10/25 00:24:21;;;;;;;12.18;6.35;;;9.70;99.90;;;;;;5076607;28;20474;-73
2023/10/25 00:26:46;;;;;;;11.85;6.10;;;9.60;99.90;;;;;;5082135;28;20045;-72
2023/10/25 00:29:12;;;;;;;13.82;5.88;;;9.60;99.90;;;;;;5083199;28;20482;-73
2023/10/25 00:31:38;;;;;;;13.00;6.80;;;9.60;99.90;;;;;;5083474;28;20051;-72
2023/10/25 00:34:03;;;;;;;12.93;6.35;;;9.60;99.90;;;;;;5092948;28;20117;-73
2023/10/25 00:36:29;;;;;;;18.83;6.55;;;9.60;99.90;;;;;;5093257;28;20041;-72
2023/10/25 00:38:55;;;;;;;11.38;5.82;;;9.50;99.90;;;;;;5061160;28;20079;-72
2023/10/25 00:41:21;;;;;;;10.50;5.03;;;9.60;99.90;;;;;;5071387;28;20049;-73
2023/10/25 00:43:46;;;;;;;13.70;5.68;;;9.50;99.90;;;;;;5071712;28;20501;-72
2023/10/25 00:46:15;;;;;;;13.93;5.72;;;9.50;99.90;;;;;;5073128;28;20041;-73
2023/10/25 00:48:44;;;;;;;13.23;6.20;;;9.50;99.90;;;;;;5074007;28;20084;-72
2023/10/25 00:51:12;;;;;;;13.50;6.20;;;9.50;99.90;;;;;;5072723;28;20044;-73
2023/10/25 00:53:41;;;;;;;10.32;5.32;;;9.50;99.90;;;;;;5074535;28;20101;-73
2023/10/25 00:56:09;;;;;;;11.55;6.20;;;9.50;99.90;;;;;;5093546;28;20087;-73
2023/10/25 00:58:36;;;;;;;10.52;5.95;;;9.40;99.90;;;;;;5093148;28;20051;-73
2023/10/25 01:01:02;;;;;;;10.70;5.25;;;9.50;99.90;;;;;;5082922;28;20444;-72
2023/10/25 01:03:28;;;;;;;16.33;6.50;;;9.40;99.90;;;;;;5084679;28;20055;-72
2023/10/25 01:05:54;;;;;;;12.35;5.80;;;9.40;99.90;;;;;;5092286;28;20048;-72
2023/10/25 01:08:21;;;;;;;11.98;6.20;;;9.40;99.90;;;;;;5084897;28;20049;-72
2023/10/25 01:10:51;;;;;;;14.70;6.32;;;9.40;99.90;;;;;;5089647;28;20146;-73
2023/10/25 01:13:18;;;;;;;10.23;5.57;;;9.40;99.90;;;;;;5075119;28;20052;-73
2023/10/25 01:15:43;;;;;;;11.98;6.13;;;9.30;99.90;;;;;;5074706;28;20048;-72
2023/10/25 01:18:09;;;;;;;12.50;6.63;;;9.30;99.90;;;;;;5080481;28;20380;-73
2023/10/25 01:20:36;;;;;;;9.90;6.03;;;9.30;99.90;;;;;;5092961;28;20428;-73
2023/10/25 01:23:02;;;;;;;12.60;6.28;;;9.20;99.90;;;;;;5083106;28;20040;-73
2023/10/25 01:25:27;;;;;;;9.93;6.25;;;9.20;99.90;;;;;;5092707;28;20129;-73
2023/10/25 01:27:53;;;;;;;8.20;5.50;;;9.20;99.90;;;;;;5068091;28;20041;-73
2023/10/25 01:30:20;;;;;;;10.38;5.85;;;9.20;99.90;;;;;;5075046;28;20127;-74
2023/10/25 01:32:45;;;;;;;14.82;6.50;;;9.20;99.90;;;;;;5072629;28;20040;-73
2023/10/25 01:35:11;;;;;;;11.98;6.28;;;9.20;99.90;;;;;;5071527;28;20041;-73
2023/10/25 01:37:37;;;;;;;12.60;6.55;;;9.20;99.90;;;;;;5073220;28;20049;-73
2023/10/25 01:40:04;;;;;;;10.10;6.10;;;9.20;99.90;;;;;;5071938;28;20140;-73
2023/10/25 01:42:30;;;;;;;14.60;6.75;;;9.10;99.90;;;;;;5073283;28;20106;-73
2023/10/25 01:44:56;;;;;;;13.50;6.22;;;9.10;99.90;;;;;;5053230;28;20491;-73
2023/10/25 01:47:22;;;;;;;11.05;6.18;;;9.10;99.90;;;;;;5073118;28;20080;-73
2023/10/25 01:49:47;;;;;;;14.02;5.82;;;9.10;99.90;;;;;;5072429;28;20120;-72
2023/10/25 01:52:13;;;;;;;9.05;6.20;;;9.10;99.90;;;;;;5060997;28;20088;-72
2023/10/25 01:54:40;;;;;;;13.15;6.72;;;9.10;99.90;;;;;;5072320;28;20447;-72
2023/10/25 01:57:06;;;;;;;12.65;6.65;;;9.10;99.90;;;;;;5071860;28;20060;-73
2023/10/25 01:59:32;;;;;;;10.38;5.82;;;9.00;99.90;;;;;;5071562;28;20113;-73
2023/10/25 02:01:58;;;;;;;10.10;5.85;;;9.00;99.90;;;;;;5070559;28;20490;-72
2023/10/25 02:04:23;;;;;;;12.40;6.90;;;9.00;99.90;;;;;;5072084;28;20037;-72
2023/10/25 02:06:51;;;;;;;14.52;6.65;;;9.00;99.90;;;;;;5072123;28;20044;-72
2023/10/25 02:09:18;;;;;;;10.43;6.45;;;9.00;99.90;;;;;;5071432;28;20110;-72
2023/10/25 02:11:44;;;;;;;9.63;6.25;;;8.90;99.90;;;;;;5072096;28;20048;-72
2023/10/25 02:14:10;;;;;;;12.65;6.32;;;8.90;99.90;;;;;;5071394;28;20056;-72
2023/10/25 02:16:36;;;;;;;10.80;6.30;;;9.00;99.90;;;;;;5070481;28;20424;-72
2023/10/25 02:19:02;;;;;;;13.52;7.05;;;8.90;99.90;;;;;;5071953;28;20041;-71
2023/10/25 02:21:27;;;;;;;13.90;7.00;;;8.90;99.90;;;;;;5066393;28;20146;-73
2023/10/25 02:23:53;;;;;;;12.25;7.00;;;8.90;99.90;;;;;;5070558;28;20040;-73
2023/10/25 02:26:19;;;;;;;10.65;6.47;;;8.90;99.90;;;;;;5067646;28;20045;-72
2023/10/25 02:28:45;;;;;;;14.35;6.75;;;8.90;99.90;;;;;;5074023;28;20036;-72
2023/10/25 02:31:11;;;;;;;16.77;7.00;;;8.90;99.90;;;;;;5075217;28;20094;-72
2023/10/25 02:33:38;;;;;;;12.77;7.07;;;8.90;99.90;;;;;;5079176;28;20044;-72
2023/10/25 02:36:04;;;;;;;11.60;6.60;;;8.90;99.90;;;;;;5080444;28;20051;-72
2023/10/25 02:38:30;;;;;;;13.82;7.13;;;8.80;99.90;;;;;;5090209;28;20048;-72
2023/10/25 02:40:55;;;;;;;14.60;6.95;;;8.80;99.90;;;;;;5087770;28;20390;-73
2023/10/25 02:43:21;;;;;;;14.30;7.30;;;8.80;99.90;;;;;;5078717;28;20134;-73
2023/10/25 02:45:47;;;;;;;14.07;7.88;;;8.80;99.90;;;;;;5065268;28;20463;-72
2023/10/25 02:48:13;;;;;;;13.70;7.47;;;8.70;99.90;;;;;;5081460;28;20048;-73
2023/10/25 02:50:39;;;;;;;13.73;7.43;;;8.70;99.90;;;;;;5092393;28;20119;-72
2023/10/25 02:53:05;;;;;;;16.10;7.80;;;8.70;99.90;;;;;;5085412;28;20072;-72
2023/10/25 02:55:35;;;;;;;15.15;7.63;;;8.70;99.90;;;;;;5076674;28;20472;-72
2023/10/25 02:58:01;;;;;;;17.45;7.38;;;8.70;99.90;;;;;;5075680;28;20051;-72
2023/10/25 03:00:27;;;;;;;11.20;7.60;;;8.70;99.90;;;;;;5091496;28;20044;-72
2023/10/25 03:02:53;;;;;;;12.70;7.65;;;8.70;99.90;;;;;;5091252;28;20128;-73
2023/10/25 03:05:19;;;;;;;12.73;8.05;;;8.70;99.90;;;;;;5074477;28;20071;-72
2023/10/25 03:07:44;;;;;;;13.07;8.02;;;8.70;99.90;;;;;;5083354;28;20067;-73
2023/10/25 03:10:10;;;;;;;12.27;7.25;;;8.70;99.90;;;;;;5090410;28;20435;-73
2023/10/25 03:12:36;;;;;;;14.70;7.97;;;8.70;99.90;;;;;;5073425;28;20138;-72
2023/10/25 03:15:02;;;;;;;14.15;8.75;;;8.70;99.90;;;;;;5058033;28;20048;-72
2023/10/25 03:17:30;;;;;;;16.05;9.40;;;8.70;99.90;;;;;;5072646;28;20230;-72
2023/10/25 03:19:56;;;;;;;17.50;8.90;;;8.60;99.90;;;;;;5091096;28;20048;-73
2023/10/25 03:22:22;;;;;;;13.23;8.95;;;8.60;99.90;;;;;;5092729;28;20058;-73
2023/10/25 03:24:47;;;;;;;22.25;10.38;;;8.60;99.90;;;;;;5075624;28;20044;-72
2023/10/25 03:27:13;;;;;;;16.70;8.77;;;8.60;99.90;;;;;;5086867;28;20040;-72
2023/10/25 03:29:39;;;;;;;15.77;9.40;;;8.60;99.90;;;;;;5078090;28;20493;-72
2023/10/25 03:32:05;;;;;;;16.85;9.80;;;8.60;99.90;;;;;;5096024;28;20047;-73
2023/10/25 03:34:30;;;;;;;17.13;9.80;;;8.50;99.90;;;;;;5093879;28;20044;-73
2023/10/25 03:36:56;;;;;;;18.33;10.85;;;8.60;99.90;;;;;;5080859;28;20040;-73
2023/10/25 03:39:22;;;;;;;17.88;10.57;;;8.50;99.90;;;;;;5091875;28;20066;-73
2023/10/25 03:41:48;;;;;;;18.15;10.55;;;8.50;99.90;;;;;;5085770;28;20044;-72
2023/10/25 03:44:14;;;;;;;16.35;10.02;;;8.50;99.90;;;;;;5095247;28;20036;-72
2023/10/25 03:46:39;;;;;;;17.10;9.80;;;8.50;99.90;;;;;;5083481;28;20139;-72
2023/10/25 03:49:05;;;;;;;17.48;10.90;;;8.50;99.90;;;;;;5095469;28;20044;-73
2023/10/25 03:51:31;;;;;;;21.83;11.65;;;8.50;99.90;;;;;;5080716;28;20072;-72
2023/10/25 03:53:57;;;;;;;20.63;10.07;;;8.50;99.90;;;;;;5089240;28;20040;-73
2023/10/25 03:56:23;;;;;;;17.02;10.38;;;8.50;99.90;;;;;;5080956;28;20541;-73
2023/10/25 03:58:49;;;;;;;22.42;11.43;;;8.50;99.90;;;;;;5087158;28;20401;-72
2023/10/25 04:01:14;;;;;;;21.52;11.13;;;8.50;99.90;;;;;;5093577;28;20055;-73
2023/10/25 04:03:41;;;;;;;22.98;12.20;;;8.50;99.90;;;;;;5091336;28;20035;-72
2023/10/25 04:06:08;;;;;;;15.57;11.50;;;8.50;99.90;;;;;;5092610;28;20405;-72
2023/10/25 04:08:33;;;;;;;17.85;10.75;;;8.40;99.90;;;;;;5070726;28;20288;-73
2023/10/25 04:10:59;;;;;;;15.18;10.48;;;8.50;99.90;;;;;;5092416;28;20127;-73
2023/10/25 04:13:25;;;;;;;19.55;11.25;;;8.50;99.90;;;;;;5086535;28;20057;-72
2023/10/25 04:15:59;;;;;;;17.52;11.30;;;8.50;99.90;;;;;;5080649;28;20101;-72
2023/10/25 04:18:28;;;;;;;15.40;10.57;;;8.50;99.90;;;;;;5090149;28;20044;-73
2023/10/25 04:20:55;;;;;;;17.17;11.02;;;8.50;99.90;;;;;;5084004;28;20045;-73
2023/10/25 04:23:22;;;;;;;14.75;10.15;;;8.50;99.90;;;;;;5065151;28;20055;-73
2023/10/25 04:25:47;;;;;;;15.85;9.73;;;8.50;99.90;;;;;;5069221;28;20130;-73
2023/10/25 04:28:14;;;;;;;16.33;10.73;;;8.50;99.90;;;;;;5058431;28;20536;-72
2023/10/25 04:30:40;;;;;;;17.63;10.80;;;8.50;99.90;;;;;;5054700;28;20148;-73
2023/10/25 04:33:06;;;;;;;18.67;10.88;;;8.50;99.90;;;;;;5060629;28;20045;-72
2023/10/25 04:35:32;;;;;;;15.60;10.20;;;8.50;99.90;;;;;;5073989;28;20048;-72
2023/10/25 04:37:58;;;;;;;19.67;10.73;;;8.40;99.90;;;;;;5074238;28;20045;-73
2023/10/25 04:40:23;;;;;;;18.80;9.75;;;8.40;99.90;;;;;;5078471;28;20394;-72
2023/10/25 04:42:50;;;;;;;15.70;10.63;;;8.40;99.90;;;;;;5093355;28;20048;-73
2023/10/25 04:45:16;;;;;;;19.73;10.35;;;8.40;99.90;;;;;;5089364;28;20122;-73
2023/10/25 04:47:42;;;;;;;16.73;10.07;;;8.40;99.90;;;;;;5089178;28;20497;-73
2023/10/25 04:50:08;;;;;;;15.23;9.48;;;8.40;99.90;;;;;;5091628;28;20093;-73
2023/10/25 04:52:34;;;;;;;15.02;9.73;;;8.40;99.90;;;;;;5093555;28;20044;-73
2023/10/25 04:55:00;;;;;;;15.20;10.02;;;8.40;99.90;;;;;;5080107;28;20548;-72
2023/10/25 04:57:25;;;;;;;15.45;9.98;;;8.40;99.90;;;;;;5064885;28;20049;-73
2023/10/25 04:59:52;;;;;;;17.77;9.30;;;8.40;99.90;;;;;;5086877;28;20131;-73
2023/10/25 05:02:19;;;;;;;19.40;9.23;;;8.40;99.90;;;;;;5079557;28;20040;-73
2023/10/25 05:04:45;;;;;;;15.13;9.65;;;8.40;99.90;;;;;;5088882;28;20055;-72
2023/10/25 05:07:11;;;;;;;14.95;9.88;;;8.40;99.90;;;;;;5084691;28;20124;-73
2023/10/25 05:09:37;;;;;;;17.48;10.43;;;8.40;99.90;;;;;;5085095;28;20056;-72
2023/10/25 05:12:07;;;;;;;14.60;8.82;;;8.30;99.90;;;;;;5081819;28;20040;-73
2023/10/25 05:14:34;;;;;;;15.00;9.40;;;8.30;99.90;;;;;;5066733;28;20536;-72
2023/10/25 05:17:01;;;;;;;15.95;9.80;;;8.30;99.90;;;;;;5072030;28;20045;-72
2023/10/25 05:19:27;;;;;;;13.45;8.88;;;8.30;99.90;;;;;;5060421;28;20052;-72
2023/10/25 05:21:55;;;;;;;15.02;9.85;;;8.30;99.90;;;;;;5071477;28;20056;-72
2023/10/25 05:24:21;;;;;;;14.45;8.85;;;8.30;99.90;;;;;;5073276;28;20048;-72
2023/10/25 05:26:48;;;;;;;20.38;9.18;;;8.30;99.90;;;;;;5067775;28;20191;-72
2023/10/25 05:29:14;;;;;;;11.63;9.15;;;8.30;99.90;;;;;;5082452;28;20054;-73
2023/10/25 05:31:43;;;;;;;19.27;10.00;;;8.30;99.90;;;;;;5090421;28;20050;-72
2023/10/25 05:34:10;;;;;;;16.92;9.30;;;8.20;99.90;;;;;;5085306;28;20040;-72
2023/10/25 05:36:37;;;;;;;18.60;9.15;;;8.20;99.90;;;;;;5066753;28;20041;-73
2023/10/25 05:39:04;;;;;;;15.20;8.40;;;8.20;99.90;;;;;;5082780;28;20068;-73
2023/10/25 05:41:35;;;;;;;12.43;8.00;;;8.20;99.90;;;;;;5091336;28;20063;-73
2023/10/25 05:44:10;;;;;;;18.00;9.18;;;8.20;99.90;;;;;;5074557;28;20075;-72
2023/10/25 05:46:36;;;;;;;15.98;9.57;;;8.20;99.90;;;;;;5083156;28;20543;-73
2023/10/25 05:49:02;;;;;;;15.77;9.32;;;8.10;99.90;;;;;;5080565;28;20119;-73
2023/10/25 05:51:28;;;;;;;15.63;9.00;;;8.10;99.90;;;;;;5041223;28;20071;-72
2023/10/25 05:53:54;;;;;;;14.65;9.32;;;8.10;99.90;;;;;;5081567;28;20040;-72
2023/10/25 05:56:25;;;;;;;17.23;9.05;;;8.10;99.90;;;;;;5084683;28;20040;-73
2023/10/25 05:58:54;;;;;;;14.80;9.02;;;8.10;99.90;;;;;;5083744;28;20086;-73
2023/10/25 06:01:30;;;;;;;15.88;9.20;;;8.00;99.90;;;;;;5084917;28;20127;-73
2023/10/25 06:03:58;;;;;;;13.13;8.00;;;8.00;99.90;;;;;;5080615;28;20043;-73
2023/10/25 06:06:25;;;;;;;15.23;8.77;;;8.00;99.90;;;;;;5083687;28;20051;-73
2023/10/25 06:08:51;;;;;;;17.98;9.27;;;8.00;99.90;;;;;;5072238;28;20050;-73
2023/10/25 06:11:17;;;;;;;14.25;8.45;;;8.00;99.90;;;;;;5065659;28;20056;-73
2023/10/25 06:13:43;;;;;;;21.73;9.30;;;8.00;99.90;;;;;;5056742;28;20056;-74
2023/10/25 06:16:09;;;;;;;18.13;8.95;;;8.00;99.90;;;;;;5074201;28;20056;-72
2023/10/25 06:18:35;;;;;;;14.27;7.88;;;8.00;99.90;;;;;;5092023;28;20052;-72
2023/10/25 06:21:01;;;;;;;18.98;8.52;;;8.00;99.90;;;;;;5091919;28;20048;-72
2023/10/25 06:23:26;;;;;;;23.60;9.05;;;7.90;99.90;;;;;;5077127;28;20425;-72
2023/10/25 06:25:52;;;;;;;22.75;9.70;;;7.90;99.90;;;;;;5082951;28;20051;-72
2023/10/25 06:28:18;;;;;;;14.68;7.85;;;8.00;99.90;;;;;;5089473;28;20051;-72
2023/10/25 06:30:45;;;;;;;15.32;8.32;;;8.00;99.90;;;;;;5091972;28;20500;-71
2023/10/25 06:33:11;;;;;;;12.73;8.73;;;7.90;99.90;;;;;;5066158;28;20221;-72
2023/10/25 06:35:37;;;;;;;16.92;7.40;;;8.00;99.90;;;;;;5080209;28;20044;-73
2023/10/25 06:38:03;;;;;;;18.38;8.63;;;7.90;99.90;;;;;;5071929;28;20116;-73
2023/10/25 06:40:29;;;;;;;13.60;8.38;;;8.00;99.90;;;;;;5080501;28;20089;-73
2023/10/25 06:42:55;;;;;;;12.80;8.45;;;8.00;99.90;;;;;;5072503;28;20048;-73
2023/10/25 06:45:21;;;;;;;16.05;7.72;;;8.00;99.90;;;;;;5074039;28;20441;-72
2023/10/25 06:47:47;;;;;;;16.27;8.48;;;8.00;99.90;;;;;;5053595;28;20044;-72
2023/10/25 06:50:16;;;;;;;12.25;7.97;;;8.00;99.90;;;;;;5088235;28;20036;-73
2023/10/25 06:52:42;;;;;;;19.48;8.27;;;8.00;99.90;;;;;;5090575;28;20405;-72
2023/10/25 06:55:08;;;;;;;10.30;6.53;;;8.00;99.90;;;;;;5090785;28;20072;-71
2023/10/25 06:57:35;;;;;;;13.32;7.78;;;8.10;99.90;;;;;;5076733;28;20087;-72
2023/10/25 07:00:03;;;;;;;14.38;8.20;;;8.10;99.90;;;;;;5085833;28;20055;-72
2023/10/25 07:02:43;;;;;;;15.18;8.25;;;8.10;99.90;;;;;;5059111;28;20193;-70
2023/10/25 07:05:13;;;;;;;20.23;8.38;;;8.30;99.90;;;;;;5070996;28;20091;-71
2023/10/25 07:07:43;;;;;;;13.60;7.88;;;8.80;99.90;;;;;;5070605;28;20051;-70
2023/10/25 07:10:10;;;;;;;10.38;5.32;;;9.20;99.90;;;;;;5065950;28;20062;-70
2023/10/25 07:12:36;;;;;;;12.07;5.32;;;9.70;99.90;;;;;;5071478;28;21240;-70
2023/10/25 07:15:02;;;;;;;12.02;6.15;;;10.10;99.90;;;;;;5071164;28;20060;-71
2023/10/25 07:17:28;;;;;;;9.65;6.05;;;10.50;99.90;;;;;;5069893;28;20045;-71
2023/10/25 07:19:54;;;;;;;9.15;5.55;;;11.00;99.90;;;;;;5068215;28;20040;-72
2023/10/25 07:22:20;;;;;;;8.52;5.90;;;11.30;99.90;;;;;;5070662;28;20045;-72
2023/10/25 07:24:46;;;;;;;8.77;4.85;;;11.60;99.90;;;;;;5060239;28;20384;-73
2023/10/25 07:27:12;;;;;;;10.18;4.90;;;11.90;99.90;;;;;;5070188;28;20537;-73
2023/10/25 07:29:39;;;;;;;9.52;5.07;;;11.90;99.90;;;;;;5087127;28;20512;-72
2023/10/25 07:32:05;;;;;;;9.80;5.40;;;11.80;99.90;;;;;;5091021;28;20423;-73
2023/10/25 07:34:31;;;;;;;11.73;5.60;;;11.50;99.90;;;;;;5091739;28;20066;-72
2023/10/25 07:36:56;;;;;;;10.35;5.13;;;11.30;99.90;;;;;;5076475;28;20048;-72
2023/10/25 07:39:22;;;;;;;9.00;4.45;;;11.20;99.90;;;;;;5086199;28;20040;-72
2023/10/25 07:41:48;;;;;;;10.02;5.65;;;11.30;99.90;;;;;;5056885;28;20071;-72
2023/10/25 07:44:14;;;;;;;8.93;4.80;;;11.30;99.90;;;;;;5070479;28;20044;-72
2023/10/25 07:46:40;;;;;;;12.50;5.47;;;11.30;99.90;;;;;;5065581;28;20051;-72
2023/10/25 07:49:06;;;;;;;7.65;4.57;;;11.10;99.90;;;;;;5070322;28;20052;-71
2023/10/25 07:51:31;;;;;;;11.10;5.07;;;10.90;99.90;;;;;;5059507;28;20324;-71
2023/10/25 07:53:57;;;;;;;13.38;6.22;;;10.60;99.90;;;;;;5061410;28;20066;-70
2023/10/25 07:56:23;;;;;;;9.93;5.13;;;10.40;99.90;;;;;;5061036;28;20047;-72
2023/10/25 07:58:50;;;;;;;10.15;4.97;;;10.20;99.90;;;;;;5062995;28;20540;-71
2023/10/25 08:01:16;;;;;;;11.60;5.03;;;10.20;99.90;;;;;;5067084;28;20084;-70
2023/10/25 08:03:41;;;;;;;11.85;5.80;;;10.00;99.90;;;;;;5065042;28;20072;-70
2023/10/25 08:06:07;;;;;;;7.82;5.18;;;10.00;99.90;;;;;;5068164;28;21007;-70
2023/10/25 08:08:33;;;;;;;10.75;5.55;;;10.00;99.90;;;;;;5068670;28;20048;-72
2023/10/25 08:11:03;;;;;;;12.07;6.30;;;10.00;99.90;;;;;;5073303;28;20052;-70
2023/10/25 08:13:34;;;;;;;10.48;6.10;;;10.20;99.90;;;;;;5074704;28;20060;-71
2023/10/25 08:16:03;;;;;;;12.07;5.25;;;10.20;99.90;;;;;;5068182;28;20401;-71
2023/10/25 08:18:30;;;;;;;9.07;4.45;;;10.20;99.90;;;;;;5066149;28;20040;-71
2023/10/25 08:20:57;;;;;;;14.00;5.53;;;10.30;99.90;;;;;;5062284;28;20116;-71
2023/10/25 08:23:23;;;;;;;13.65;5.40;;;10.30;99.90;;;;;;5067012;28;20052;-71
2023/10/25 08:25:50;;;;;;;13.32;4.93;;;10.30;99.90;;;;;;5070057;28;20050;-70
2023/10/25 08:28:16;;;;;;;10.35;5.05;;;10.30;99.90;;;;;;5078977;28;20052;-71
2023/10/25 08:30:42;;;;;;;9.20;4.20;;;10.30;99.90;;;;;;5076762;28;20040;-72
2023/10/25 08:33:08;;;;;;;14.15;5.28;;;10.30;99.90;;;;;;5072810;28;20044;-71
2023/10/25 08:35:34;;;;;;;8.32;4.65;;;10.30;99.90;;;;;;5073479;28;20045;-71
2023/10/25 08:38:00;;;;;;;11.30;4.97;;;10.30;99.90;;;;;;5056000;28;20386;-71
2023/10/25 08:40:26;;;;;;;13.02;5.13;;;10.20;99.90;;;;;;5065899;28;20051;-70
2023/10/25 08:42:52;;;;;;;12.68;5.15;;;10.30;99.90;;;;;;5073895;28;20055;-71
2023/10/25 08:45:19;;;;;;;12.77;4.82;;;10.30;99.90;;;;;;5067450;28;20040;-71
2023/10/25 08:47:45;;;;;;;13.35;5.40;;;10.30;99.90;;;;;;5069042;28;20052;-71
2023/10/25 08:50:13;;;;;;;9.15;4.97;;;10.30;99.90;;;;;;5073650;28;20048;-71
2023/10/25 08:52:43;;;;;;;13.55;5.20;;;10.30;99.90;;;;;;5073659;28;20483;-71
2023/10/25 08:55:09;;;;;;;11.20;4.80;;;10.20;99.90;;;;;;5073867;28;20448;-72
2023/10/25 08:57:40;;;;;;;8.73;5.05;;;10.20;99.90;;;;;;5055890;28;20078;-71
2023/10/25 09:00:07;;;;;;;8.40;4.80;;;10.30;99.90;;;;;;5067911;28;20044;-71
2023/10/25 09:02:36;;;;;;;13.30;5.13;;;10.30;99.90;;;;;;5068768;28;20143;-71
2023/10/25 09:05:07;;;;;;;13.27;4.88;;;10.30;99.90;;;;;;5057232;28;20079;-72
2023/10/25 09:07:36;;;;;;;9.45;4.95;;;10.30;99.90;;;;;;5067700;28;20052;-71
2023/10/25 09:10:22;;;;;;;9.38;5.43;;;10.10;99.90;;;;;;5065585;28;20040;-71
2023/10/25 09:12:49;;;;;;;10.60;5.22;;;10.30;99.90;;;;;;5072915;28;20037;-72
2023/10/25 09:15:28;;;;;;;8.63;5.72;;;10.30;99.90;;;;;;5064702;28;20075;-71
2023/10/25 09:17:55;;;;;;;7.85;5.18;;;10.30;99.90;;;;;;5072084;28;20053;-71
2023/10/25 09:20:26;;;;;;;9.43;5.22;;;10.40;99.90;;;;;;5066618;28;20037;-73
2023/10/25 09:22:52;;;;;;;11.88;5.07;;;10.40;99.90;;;;;;5069010;28;20106;-71
2023/10/25 09:25:29;;;;;;;9.98;4.90;;;10.40;99.90;;;;;;5071480;28;20048;-71
2023/10/25 09:27:54;;;;;;;12.55;5.57;;;10.40;99.90;;;;;;5068397;28;20045;-71
2023/10/25 09:30:20;;;;;;;9.77;5.10;;;10.40;99.90;;;;;;5066851;28;20060;-71
2023/10/25 09:32:46;;;;;;;11.38;5.43;;;10.40;99.90;;;;;;5054266;28;20055;-71
2023/10/25 09:35:12;;;;;;;12.07;4.90;;;10.50;99.90;;;;;;5071173;28;20040;-71
2023/10/25 09:37:38;;;;;;;8.45;5.00;;;10.50;99.90;;;;;;5072364;28;20154;-71
2023/10/25 09:40:06;;;;;;;10.48;5.13;;;10.50;99.90;;;;;;5051962;28;20055;-71
2023/10/25 09:42:34;;;;;;;11.15;5.25;;;10.50;99.90;;;;;;5072348;28;20044;-71
2023/10/25 09:45:03;;;;;;;14.13;4.90;;;10.60;99.90;;;;;;5071074;28;20583;-71
2023/10/25 09:47:32;;;;;;;10.77;5.53;;;10.60;99.90;;;;;;5088674;28;20044;-71
2023/10/25 09:50:13;;;;;;;8.30;4.70;;;10.60;99.90;;;;;;5085484;28;20040;-71
2023/10/25 09:52:40;;;;;;;12.98;5.30;;;10.70;99.90;;;;;;5071331;28;20047;-71
2023/10/25 09:55:21;;;;;;;8.75;5.15;;;10.70;99.90;;;;;;5070334;28;20052;-71
2023/10/25 09:57:48;;;;;;;9.52;5.07;;;10.70;99.90;;;;;;5081836;28;20055;-71
2023/10/25 10:00:15;;;;;;;10.57;5.30;;;10.70;99.90;;;;;;5073339;28;20123;-71
2023/10/25 10:02:52;;;;;;;9.48;4.82;;;10.70;99.90;;;;;;5082426;28;20054;-71
2023/10/25 10:05:34;;;;;;;11.15;5.25;;;10.80;99.90;;;;;;5073429;28;20040;-73
2023/10/25 10:08:19;;;;;;;11.15;5.60;;;10.80;99.90;;;;;;5076683;28;20119;-71
2023/10/25 10:11:09;;;;;;;14.82;6.22;;;10.80;99.90;;;;;;5070745;28;20498;-71
2023/10/25 10:13:34;;;;;;;13.30;6.45;;;10.80;99.90;;;;;;5066322;28;20059;-72
2023/10/25 10:16:09;;;;;;;12.57;5.63;;;10.80;99.90;;;;;;5070925;28;20047;-72
2023/10/25 10:18:45;;;;;;;9.75;5.60;;;10.80;99.90;;;;;;5060197;28;20057;-72
2023/10/25 10:21:14;;;;;;;11.00;5.40;;;10.90;99.90;;;;;;5059746;28;20058;-72
2023/10/25 10:23:49;;;;;;;10.30;4.82;;;11.00;99.90;;;;;;5057136;28;20155;-71
2023/10/25 10:26:44;;;;;;;12.07;6.45;;;11.00;99.90;;;;;;5073478;28;20405;-71
2023/10/25 10:29:31;;;;;;;9.02;4.32;;;11.10;99.90;;;;;;5088929;28;20105;-71
2023/10/25 10:31:58;;;;;;;10.93;6.03;;;11.10;99.90;;;;;;5066279;28;20050;-70
2023/10/25 10:34:41;;;;;;;10.40;6.05;;;11.20;99.90;;;;;;5087478;28;20050;-71
2023/10/25 10:37:10;;;;;;;10.25;5.75;;;11.30;99.90;;;;;;5059353;28;20055;-71
2023/10/25 10:39:38;;;;;;;11.45;6.25;;;11.30;99.90;;;;;;5084997;28;20054;-71
2023/10/25 10:42:05;;;;;;;10.20;5.95;;;11.40;99.90;;;;;;5064339;28;20051;-71
2023/10/25 10:44:36;;;;;;;12.25;6.18;;;11.40;99.90;;;;;;5057570;28;20071;-71
2023/10/25 10:47:07;;;;;;;11.90;6.25;;;11.40;99.90;;;;;;5069952;28;20440;-72
2023/10/25 10:49:35;;;;;;;10.45;6.15;;;11.50;99.90;;;;;;5071857;28;20079;-72
2023/10/25 10:52:02;;;;;;;9.10;5.90;;;11.50;99.90;;;;;;5071606;28;20044;-71
2023/10/25 10:54:28;;;;;;;9.95;4.95;;;11.50;99.90;;;;;;5071195;28;20047;-71
2023/10/25 10:56:54;;;;;;;9.10;5.72;;;11.60;99.90;;;;;;5054243;28;20036;-72
2023/10/25 10:59:20;;;;;;;9.73;6.25;;;11.60;99.90;;;;;;5070987;28;20044;-72
2023/10/25 11:01:46;;;;;;;10.63;5.50;;;11.60;99.90;;;;;;5071552;28;20047;-72
2023/10/25 11:04:12;;;;;;;12.05;6.10;;;11.70;99.90;;;;;;5070551;28;20044;-71
2023/10/25 11:06:39;;;;;;;12.25;6.20;;;11.70;99.90;;;;;;5070782;28;20051;-71
2023/10/25 11:09:08;;;;;;;9.93;5.65;;;11.80;99.90;;;;;;5071406;28;20049;-71
2023/10/25 11:11:35;;;;;;;9.80;5.80;;;11.90;99.90;;;;;;5071434;28;20095;-70
2023/10/25 11:14:01;;;;;;;11.15;5.53;;;11.90;99.90;;;;;;5069769;28;20215;-73
2023/10/25 11:16:26;;;;;;;13.23;5.60;;;12.00;99.90;;;;;;5069420;28;20529;-73
2023/10/25 11:18:53;;;;;;;9.80;5.80;;;12.10;99.90;;;;;;5070233;28;20087;-72
2023/10/25 11:21:19;;;;;;;10.50;5.50;;;12.20;99.90;;;;;;5071054;28;20044;-73
2023/10/25 11:23:45;;;;;;;12.20;5.80;;;12.20;99.90;;;;;;5070511;28;20045;-73
2023/10/25 11:26:10;;;;;;;13.07;5.35;;;12.30;99.90;;;;;;5071236;28;20132;-73
2023/10/25 11:28:39;;;;;;;10.70;5.20;;;12.40;99.90;;;;;;5078797;28;20063;-72
2023/10/25 11:31:06;;;;;;;10.25;5.30;;;12.50;99.90;;;;;;5077634;28;20430;-72
2023/10/25 11:33:44;;;;;;;12.38;5.47;;;12.50;99.90;;;;;;5072995;28;20036;-76
2023/10/25 11:36:11;;;;;;;13.80;5.65;;;12.50;99.90;;;;;;5084215;28;20048;-70
2023/10/25 11:38:44;;;;;;;11.30;5.35;;;12.50;99.90;;;;;;5074532;28;20051;-72
2023/10/25 11:41:10;;;;;;;9.32;5.38;;;12.50;99.90;;;;;;5062923;28;20134;-73
2023/10/25 11:43:36;;;;;;;9.73;5.50;;;12.50;99.90;;;;;;5073119;28;20490;-73
2023/10/25 11:46:05;;;;;;;12.88;6.07;;;12.60;99.90;;;;;;5077103;28;20164;-72
2023/10/25 11:48:33;;;;;;;12.95;5.45;;;12.50;99.90;;;;;;5074719;28;20044;-73
2023/10/25 11:50:59;;;;;;;6.82;4.78;;;12.50;99.90;;;;;;5074522;28;20553;-73
2023/10/25 11:53:25;;;;;;;9.32;5.55;;;12.50;99.90;;;;;;5054746;28;20124;-73
2023/10/25 11:55:52;;;;;;;14.18;5.70;;;12.50;99.90;;;;;;5068613;28;20072;-73
2023/10/25 11:58:18;;;;;;;10.63;6.25;;;12.50;99.90;;;;;;5074577;28;20051;-73
2023/10/25 12:00:44;;;;;;;12.63;6.13;;;12.50;99.90;;;;;;5074701;28;20040;-73
2023/10/25 12:03:09;;;;;;;11.57;5.93;;;12.50;99.90;;;;;;5074389;28;20044;-73
2023/10/25 12:05:37;;;;;;;9.05;6.25;;;12.60;99.90;;;;;;5074328;28;20041;-72
2023/10/25 12:08:04;;;;;;;9.80;5.85;;;12.60;99.90;;;;;;5073947;28;20041;-72
2023/10/25 12:10:31;;;;;;;8.73;5.65;;;12.60;99.90;;;;;;5074097;28;20049;-73
2023/10/25 12:12:57;;;;;;;11.85;5.45;;;12.60;99.90;;;;;;5074321;28;20581;-73
2023/10/25 12:15:22;;;;;;;13.80;5.82;;;12.60;99.90;;;;;;5072558;28;20056;-73
2023/10/25 12:17:48;;;;;;;16.83;6.30;;;12.50;99.90;;;;;;5053473;28;20041;-73
2023/10/25 12:20:14;;;;;;;12.77;5.15;;;12.60;99.90;;;;;;5070833;28;20494;-73
2023/10/25 12:22:39;;;;;;;9.30;5.15;;;12.50;99.90;;;;;;5073909;28;20036;-73
2023/10/25 12:25:05;;;;;;;10.02;5.35;;;12.50;99.90;;;;;;5071323;28;20045;-73
2023/10/25 12:27:31;;;;;;;8.32;4.85;;;12.50;99.90;;;;;;5072399;28;20401;-73
2023/10/25 12:29:57;;;;;;;8.43;4.57;;;12.50;99.90;;;;;;5093415;28;20040;-73
2023/10/25 12:32:22;;;;;;;10.32;4.65;;;12.50;99.90;;;;;;5094467;28;20044;-73
2023/10/25 12:34:48;;;;;;;11.57;4.68;;;12.50;99.90;;;;;;5076296;28;20548;-73
2023/10/25 12:37:14;;;;;;;5.53;4.05;;;12.50;99.90;;;;;;5068109;28;20048;-73
2023/10/25 12:39:40;;;;;;;7.45;4.28;;;12.40;99.90;;;;;;5087390;28;20108;-73
2023/10/25 12:42:05;;;;;;;14.05;4.43;;;12.40;99.90;;;;;;5093788;28;20119;-73
2023/10/25 12:44:31;;;;;;;9.60;4.63;;;12.40;99.90;;;;;;5082446;28;20486;-73